Time;durP1;ratioP1;P1;durP2;ratioP2;P2;SDS_P1;SDS_P2;PMS_P1;PMS_P2;Temp;Humidity;BMP_temperature;BMP_pressure;BME280_temperature;BME280_humidity;BME280_pressure;Samples;Min_cycle;Max_cycle;Signal;HPM_P1;HPM_P2
2023/03/01 00:01:13;;;;;;;6.80;5.90;;;;;;;-128.00;-1.00;-1.00;102269;1251;1002423;-66
2023/03/01 00:03:40;;;;;;;9.30;5.50;;;;;;;-128.00;-1.00;-1.00;102161;1254;1010332;-66
2023/03/01 00:06:07;;;;;;;6.40;5.30;;;;;;;-128.00;-1.00;-1.00;102639;1250;1002633;-67
2023/03/01 00:08:34;;;;;;;8.80;5.90;;;;;;;-128.00;-1.00;-1.00;102140;1250;1003383;-65
2023/03/01 00:11:15;;;;;;;7.70;5.80;;;;;;;-128.00;-1.00;-1.00;102173;1250;1002669;-67
2023/03/01 00:13:42;;;;;;;6.70;5.60;;;;;;;-128.00;-1.00;-1.00;102006;1254;1015617;-66
2023/03/01 00:16:12;;;;;;;8.60;6.30;;;;;;;-128.00;-1.00;-1.00;101922;1253;1003680;-66
2023/03/01 00:18:41;;;;;;;7.20;6.10;;;;;;;-128.00;-1.00;-1.00;102107;1250;1010539;-66
2023/03/01 00:21:08;;;;;;;6.10;5.40;;;;;;;-128.00;-1.00;-1.00;102027;1251;1003689;-67
2023/03/01 00:23:35;;;;;;;8.00;6.00;;;;;;;-128.00;-1.00;-1.00;102150;1250;1003062;-67
2023/03/01 00:26:06;;;;;;;7.90;6.00;;;;;;;-128.00;-1.00;-1.00;102150;1250;1003872;-66
2023/03/01 00:28:33;;;;;;;6.50;5.20;;;;;;;-128.00;-1.00;-1.00;102068;1250;1011027;-66
2023/03/01 00:31:05;;;;;;;5.50;4.90;;;;;;;-128.00;-1.00;-1.00;102194;1250;1014239;-67
2023/03/01 00:33:33;;;;;;;8.00;5.90;;;;;;;-128.00;-1.00;-1.00;102080;1252;1016176;-67
2023/03/01 00:36:01;;;;;;;6.60;5.40;;;;;;;-128.00;-1.00;-1.00;102019;1250;1002760;-66
2023/03/01 00:38:28;;;;;;;7.30;5.20;;;;;;;-128.00;-1.00;-1.00;102158;1250;1002086;-66
2023/03/01 00:40:55;;;;;;;7.00;5.90;;;;;;;-128.00;-1.00;-1.00;101978;1252;1003057;-66
2023/03/01 00:43:25;;;;;;;7.90;6.10;;;;;;;-128.00;-1.00;-1.00;101900;1250;1012988;-67
2023/03/01 00:45:52;;;;;;;8.20;6.10;;;;;;;-128.00;-1.00;-1.00;102104;1250;1003645;-68
2023/03/01 00:48:19;;;;;;;7.50;6.10;;;;;;;-128.00;-1.00;-1.00;101879;1250;1002656;-67
2023/03/01 00:50:46;;;;;;;8.10;6.00;;;;;;;-128.00;-1.00;-1.00;102021;1250;1002536;-67
2023/03/01 00:53:13;;;;;;;6.40;5.50;;;;;;;-128.00;-1.00;-1.00;101842;1251;1002774;-67
2023/03/01 00:55:40;;;;;;;7.40;5.80;;;;;;;-128.00;-1.00;-1.00;104994;1250;1002274;-68
2023/03/01 00:58:07;;;;;;;8.40;6.20;;;;;;;-128.00;-1.00;-1.00;105223;1250;1002670;-68
2023/03/01 01:00:34;;;;;;;9.10;7.20;;;;;;;-128.00;-1.00;-1.00;102387;1250;1003309;-67
2023/03/01 01:03:01;;;;;;;9.20;6.80;;;;;;;-128.00;-1.00;-1.00;102524;1254;1002794;-67
2023/03/01 01:05:28;;;;;;;11.00;6.40;;;;;;;-128.00;-1.00;-1.00;102335;1253;1003159;-67
2023/03/01 01:07:56;;;;;;;13.20;7.60;;;;;;;-128.00;-1.00;-1.00;102245;1252;1004107;-67
2023/03/01 01:10:24;;;;;;;7.70;6.30;;;;;;;-128.00;-1.00;-1.00;102037;1250;1003078;-67
2023/03/01 01:12:55;;;;;;;8.00;6.40;;;;;;;-128.00;-1.00;-1.00;102180;1250;1012291;-67
2023/03/01 01:15:23;;;;;;;8.10;5.90;;;;;;;-128.00;-1.00;-1.00;102061;1250;1002465;-68
2023/03/01 01:17:50;;;;;;;8.80;6.60;;;;;;;-128.00;-1.00;-1.00;101963;1250;1002324;-68
2023/03/01 01:20:20;;;;;;;8.80;6.40;;;;;;;-128.00;-1.00;-1.00;101977;1250;1013046;-68
2023/03/01 01:28:08;;;;;;;9.50;6.30;;;;;;;-128.00;-1.00;-1.00;102249;1250;1013455;-70
2023/03/01 01:30:35;;;;;;;7.80;5.70;;;;;;;-128.00;-1.00;-1.00;102131;1250;1003401;-69
2023/03/01 01:33:02;;;;;;;8.30;6.20;;;;;;;-128.00;-1.00;-1.00;102194;1250;1002378;-70
2023/03/01 01:35:29;;;;;;;8.60;6.40;;;;;;;-128.00;-1.00;-1.00;102072;1254;1002600;-70
2023/03/01 01:38:01;;;;;;;8.00;6.70;;;;;;;-128.00;-1.00;-1.00;102118;1250;1015222;-70
2023/03/01 01:40:28;;;;;;;8.70;7.20;;;;;;;-128.00;-1.00;-1.00;102160;1250;1004247;-70
2023/03/01 01:42:55;;;;;;;7.70;6.50;;;;;;;-128.00;-1.00;-1.00;102067;1250;1002849;-69
2023/03/01 01:45:36;;;;;;;9.90;6.30;;;;;;;-128.00;-1.00;-1.00;102017;1250;1003418;-69
2023/03/01 01:48:14;;;;;;;7.90;6.10;;;;;;;-128.00;-1.00;-1.00;102166;1250;1011746;-68
2023/03/01 01:50:44;;;;;;;9.20;6.60;;;;;;;-128.00;-1.00;-1.00;102130;1251;1015160;-68
2023/03/01 01:53:16;;;;;;;8.80;5.90;;;;;;;-128.00;-1.00;-1.00;101946;1258;1012568;-68
2023/03/01 01:55:45;;;;;;;9.00;6.70;;;;;;;-128.00;-1.00;-1.00;101982;1250;1012669;-68
2023/03/01 01:58:15;;;;;;;9.50;6.70;;;;;;;-128.00;-1.00;-1.00;101966;1250;1009985;-68
2023/03/01 02:00:45;;;;;;;7.70;6.20;;;;;;;-128.00;-1.00;-1.00;101818;1250;1010291;-68
2023/03/01 02:03:19;;;;;;;;;;;;;;;-128.00;-1.00;-1.00;102261;1250;1002590;-69
2023/03/01 02:06:06;;;;;;;7.90;6.20;;;;;;;-128.00;-1.00;-1.00;102194;1250;1013583;-68
2023/03/01 02:08:36;;;;;;;9.90;6.30;;;;;;;-128.00;-1.00;-1.00;102084;1256;1015739;-68
2023/03/01 02:11:04;;;;;;;8.10;6.20;;;;;;;-128.00;-1.00;-1.00;102133;1253;1010545;-68
2023/03/01 02:13:32;;;;;;;8.50;6.60;;;;;;;-128.00;-1.00;-1.00;102109;1250;1002745;-68
2023/03/01 02:16:00;;;;;;;;;;;;;;;-128.00;-1.00;-1.00;101951;1255;1002604;-69
2023/03/01 02:18:27;;;;;;;8.50;6.70;;;;;;;-128.00;-1.00;-1.00;101941;1257;1002216;-69
2023/03/01 02:21:32;;;;;;;8.40;6.10;;;;;;;-128.00;-1.00;-1.00;102173;1255;1002536;-68
2023/03/01 02:24:30;;;;;;;7.50;5.70;;;;;;;-128.00;-1.00;-1.00;104600;1250;1009711;-67
2023/03/01 02:26:57;;;;;;;9.90;5.70;;;;;;;-128.00;-1.00;-1.00;105203;1250;1010599;-67
2023/03/01 02:29:24;;;;;;;8.10;5.60;;;;;;;-128.00;-1.00;-1.00;102390;1250;1002799;-67
2023/03/01 02:31:53;;;;;;;8.70;6.30;;;;;;;-128.00;-1.00;-1.00;102244;1253;1003024;-68
2023/03/01 02:34:25;;;;;;;7.70;5.80;;;;;;;-128.00;-1.00;-1.00;102462;1250;1013122;-68
2023/03/01 02:36:57;;;;;;;8.10;6.20;;;;;;;-128.00;-1.00;-1.00;102162;1253;1011178;-68
2023/03/01 02:39:29;;;;;;;8.00;5.80;;;;;;;-128.00;-1.00;-1.00;102164;1250;1014781;-67
2023/03/01 02:41:58;;;;;;;8.60;7.10;;;;;;;-128.00;-1.00;-1.00;102023;1253;1013062;-67
2023/03/01 02:44:25;;;;;;;7.20;5.70;;;;;;;-128.00;-1.00;-1.00;101876;1250;1012781;-67
2023/03/01 02:46:54;;;;;;;6.50;5.70;;;;;;;-128.00;-1.00;-1.00;102108;1255;1002931;-68
2023/03/01 02:49:25;;;;;;;7.60;5.40;;;;;;;-128.00;-1.00;-1.00;101875;1250;1010388;-67
2023/03/01 02:52:19;;;;;;;7.90;6.00;;;;;;;-128.00;-1.00;-1.00;102086;1255;1011139;-68
2023/03/01 02:54:47;;;;;;;8.60;6.30;;;;;;;-128.00;-1.00;-1.00;102100;1255;1012820;-67
2023/03/01 02:57:16;;;;;;;8.50;6.20;;;;;;;-128.00;-1.00;-1.00;102122;1250;1011964;-67
2023/03/01 02:59:43;;;;;;;;;;;;;;;-128.00;-1.00;-1.00;102165;1250;1003233;-67
2023/03/01 03:02:37;;;;;;;8.20;6.00;;;;;;;-128.00;-1.00;-1.00;102139;1250;1002751;-67
2023/03/01 03:05:18;;;;;;;9.90;6.50;;;;;;;-128.00;-1.00;-1.00;102050;1250;1011031;-69
2023/03/01 03:07:47;;;;;;;7.50;6.10;;;;;;;-128.00;-1.00;-1.00;102205;1252;1012528;-67
2023/03/01 03:10:25;;;;;;;8.50;7.00;;;;;;;-128.00;-1.00;-1.00;102083;1250;1002579;-66
2023/03/01 03:12:54;;;;;;;8.70;6.50;;;;;;;-128.00;-1.00;-1.00;101836;1253;1013491;-69
2023/03/01 03:15:21;;;;;;;8.30;6.60;;;;;;;-128.00;-1.00;-1.00;101948;1254;1013117;-68
2023/03/01 03:17:49;;;;;;;7.80;6.60;;;;;;;-128.00;-1.00;-1.00;102127;1250;1003414;-69
2023/03/01 03:20:18;;;;;;;7.80;6.60;;;;;;;-128.00;-1.00;-1.00;102019;1254;1002366;-68
2023/03/01 03:22:50;;;;;;;9.70;7.00;;;;;;;-128.00;-1.00;-1.00;101749;1256;1014941;-68
2023/03/01 03:25:18;;;;;;;8.60;7.30;;;;;;;-128.00;-1.00;-1.00;101928;1250;1012479;-68
2023/03/01 03:27:47;;;;;;;9.90;7.40;;;;;;;-128.00;-1.00;-1.00;102168;1253;1002353;-68
2023/03/01 03:30:19;;;;;;;9.70;6.40;;;;;;;-128.00;-1.00;-1.00;102337;1250;1010645;-68
2023/03/01 03:32:53;;;;;;;8.30;6.70;;;;;;;-128.00;-1.00;-1.00;102147;1250;1012944;-69
2023/03/01 03:35:29;;;;;;;9.00;6.50;;;;;;;-128.00;-1.00;-1.00;101988;1250;1013376;-67
2023/03/01 03:38:03;;;;;;;8.10;6.40;;;;;;;-128.00;-1.00;-1.00;102135;1250;1013269;-68
2023/03/01 03:40:34;;;;;;;10.10;7.10;;;;;;;-128.00;-1.00;-1.00;102010;1250;1010374;-68
2023/03/01 03:43:02;;;;;;;9.70;7.00;;;;;;;-128.00;-1.00;-1.00;102160;1254;1013278;-67
2023/03/01 03:45:36;;;;;;;9.30;6.80;;;;;;;-128.00;-1.00;-1.00;102073;1253;1015848;-67
2023/03/01 03:48:06;;;;;;;11.20;7.60;;;;;;;-128.00;-1.00;-1.00;102069;1251;1002255;-68
2023/03/01 03:50:33;;;;;;;9.90;6.90;;;;;;;-128.00;-1.00;-1.00;102047;1254;1012910;-67
2023/03/01 03:53:01;;;;;;;8.90;7.30;;;;;;;-128.00;-1.00;-1.00;102082;1255;1002882;-67
2023/03/01 03:55:30;;;;;;;9.50;7.00;;;;;;;-128.00;-1.00;-1.00;101940;1251;1003898;-67
2023/03/01 03:58:01;;;;;;;7.00;6.30;;;;;;;-128.00;-1.00;-1.00;102185;1250;1012757;-67
2023/03/01 04:00:29;;;;;;;9.70;7.50;;;;;;;-128.00;-1.00;-1.00;101987;1250;1013132;-66
2023/03/01 04:02:57;;;;;;;9.40;6.90;;;;;;;-128.00;-1.00;-1.00;102187;1250;1012566;-66
2023/03/01 04:05:24;;;;;;;10.10;7.40;;;;;;;-128.00;-1.00;-1.00;102157;1250;1002646;-67
2023/03/01 04:08:00;;;;;;;11.20;7.50;;;;;;;-128.00;-1.00;-1.00;102192;1250;1002735;-68
2023/03/01 04:10:29;;;;;;;8.00;7.10;;;;;;;-128.00;-1.00;-1.00;102062;1250;1012397;-67
2023/03/01 04:12:56;;;;;;;8.50;7.10;;;;;;;-128.00;-1.00;-1.00;102111;1250;1013364;-67
2023/03/01 04:15:24;;;;;;;10.80;7.20;;;;;;;-128.00;-1.00;-1.00;102086;1253;1002958;-67
2023/03/01 04:17:52;;;;;;;9.40;7.00;;;;;;;-128.00;-1.00;-1.00;102043;1250;1005044;-68
2023/03/01 04:20:29;;;;;;;10.00;7.30;;;;;;;-128.00;-1.00;-1.00;102069;1255;1010867;-67
2023/03/01 04:23:10;;;;;;;9.20;7.00;;;;;;;-128.00;-1.00;-1.00;102148;1250;1016055;-68
2023/03/01 04:25:38;;;;;;;11.40;7.60;;;;;;;-128.00;-1.00;-1.00;102177;1250;1014448;-67
2023/03/01 04:28:06;;;;;;;11.10;7.60;;;;;;;-128.00;-1.00;-1.00;102164;1250;1013149;-68
2023/03/01 04:30:35;;;;;;;8.40;6.70;;;;;;;-128.00;-1.00;-1.00;102341;1250;1004189;-70
2023/03/01 04:33:05;;;;;;;11.20;7.60;;;;;;;-128.00;-1.00;-1.00;102253;1250;1011174;-69
2023/03/01 04:35:32;;;;;;;10.80;7.30;;;;;;;-128.00;-1.00;-1.00;101957;1257;1012458;-66
2023/03/01 04:38:03;;;;;;;9.80;7.30;;;;;;;-128.00;-1.00;-1.00;102067;1250;1012350;-68
2023/03/01 04:40:31;;;;;;;10.00;7.10;;;;;;;-128.00;-1.00;-1.00;102147;1255;1014009;-68
2023/03/01 04:42:59;;;;;;;10.50;7.30;;;;;;;-128.00;-1.00;-1.00;102264;1250;1011556;-68
2023/03/01 04:45:27;;;;;;;9.90;7.60;;;;;;;-128.00;-1.00;-1.00;102077;1250;1002356;-68
2023/03/01 04:47:54;;;;;;;;;;;;;;;-128.00;-1.00;-1.00;102064;1255;1002763;-68
2023/03/01 04:50:23;;;;;;;8.70;6.20;;;;;;;-128.00;-1.00;-1.00;102120;1251;1004032;-68
2023/03/01 04:52:50;;;;;;;8.00;6.20;;;;;;;-128.00;-1.00;-1.00;102136;1250;1013029;-67
2023/03/01 04:55:17;;;;;;;8.00;6.30;;;;;;;-128.00;-1.00;-1.00;102023;1250;1003518;-67
2023/03/01 04:57:44;;;;;;;9.90;6.80;;;;;;;-128.00;-1.00;-1.00;102040;1254;1002752;-68
2023/03/01 05:00:20;;;;;;;8.00;6.60;;;;;;;-128.00;-1.00;-1.00;102138;1255;1013894;-67
2023/03/01 05:02:56;;;;;;;9.00;6.00;;;;;;;-128.00;-1.00;-1.00;102121;1254;1016435;-68
2023/03/01 05:05:31;;;;;;;8.40;6.50;;;;;;;-128.00;-1.00;-1.00;102173;1250;1013528;-67
2023/03/01 05:08:18;;;;;;;8.50;6.20;;;;;;;-128.00;-1.00;-1.00;101925;1250;1010335;-66
2023/03/01 05:10:49;;;;;;;11.20;6.60;;;;;;;-128.00;-1.00;-1.00;102075;1253;1002861;-69
2023/03/01 05:13:20;;;;;;;7.90;6.30;;;;;;;-128.00;-1.00;-1.00;102079;1255;1013917;-69
2023/03/01 05:15:49;;;;;;;8.00;6.40;;;;;;;-128.00;-1.00;-1.00;102082;1254;1012437;-66
2023/03/01 05:18:16;;;;;;;8.30;6.70;;;;;;;-128.00;-1.00;-1.00;102110;1250;1013002;-67
2023/03/01 05:20:44;;;;;;;8.30;6.60;;;;;;;-128.00;-1.00;-1.00;102156;1250;1002811;-68
2023/03/01 05:23:11;;;;;;;8.80;6.90;;;;;;;-128.00;-1.00;-1.00;101949;1250;1011725;-67
2023/03/01 05:25:39;;;;;;;7.70;6.40;;;;;;;-128.00;-1.00;-1.00;101956;1256;1003805;-66
2023/03/01 05:28:10;;;;;;;10.90;8.10;;;;;;;-128.00;-1.00;-1.00;102112;1251;1004122;-66
2023/03/01 05:30:38;;;;;;;9.50;6.90;;;;;;;-128.00;-1.00;-1.00;102050;1254;1012748;-66
2023/03/01 05:33:12;;;;;;;8.20;6.00;;;;;;;-128.00;-1.00;-1.00;102281;1250;1013776;-67
2023/03/01 05:35:41;;;;;;;7.70;6.10;;;;;;;-128.00;-1.00;-1.00;102076;1250;1011785;-67
2023/03/01 05:40:57;;;;;;;8.30;6.80;;;;;;;5.20;62.78;100071.36;101851;1302;599953;-65
2023/03/01 05:43:26;;;;;;;10.30;7.10;;;;;;;6.14;53.79;100060.92;104163;1264;60423;-65
2023/03/01 05:45:55;;;;;;;9.30;7.40;;;;;;;6.32;52.79;100055.54;104105;1267;60426;-66
2023/03/01 05:48:25;;;;;;;8.20;6.70;;;;;;;6.28;52.86;100060.30;103951;1270;73390;-66
2023/03/01 05:50:55;;;;;;;11.00;7.40;;;;;;;6.35;53.01;100064.17;104179;1267;68880;-66
2023/03/01 05:53:23;;;;;;;9.80;6.40;;;;;;;6.53;52.76;100054.96;104390;1264;70783;-66
2023/03/01 05:55:52;;;;;;;10.50;7.10;;;;;;;6.50;51.57;100054.15;104273;1271;60492;-66
2023/03/01 05:58:21;;;;;;;9.00;7.30;;;;;;;6.56;52.03;100051.94;104526;1261;60444;-67
2023/03/01 06:00:50;;;;;;;11.20;7.40;;;;;;;6.62;51.43;100050.94;104205;1264;71085;-67
2023/03/01 06:03:25;;;;;;;9.80;7.00;;;;;;;6.72;52.06;100054.40;104252;1263;68962;-63
2023/03/01 06:05:57;;;;;;;8.90;7.30;;;;;;;6.73;51.94;100059.77;104225;1260;71838;-63
2023/03/01 06:08:27;;;;;;;10.30;7.30;;;;;;;6.74;51.48;100061.00;104121;1266;60830;-62
2023/03/01 06:10:55;;;;;;;8.30;6.70;;;;;;;6.72;51.76;100059.28;104154;1276;60777;-62
2023/03/01 06:13:24;;;;;;;8.60;6.50;;;;;;;6.81;52.67;100063.45;104213;1261;73422;-68
2023/03/01 06:15:59;;;;;;;8.90;7.40;;;;;;;6.93;52.18;100072.25;105076;1248;68031;-66
2023/03/01 06:18:30;;;;;;;9.70;7.00;;;;;;;6.97;51.36;100074.64;105200;1254;72037;-67
2023/03/01 06:20:58;;;;;;;13.80;7.20;;;;;;;6.93;51.70;100071.40;105083;1253;60766;-66
2023/03/01 06:23:26;;;;;;;8.90;6.60;;;;;;;6.96;51.89;100066.46;105065;1252;60789;-64
2023/03/01 06:25:55;;;;;;;8.80;6.90;;;;;;;6.96;51.36;100070.63;105201;1252;72803;-61
2023/03/01 06:28:23;;;;;;;9.00;7.30;;;;;;;6.95;51.53;100070.66;105329;1259;70539;-65
2023/03/01 06:30:56;;;;;;;10.80;7.70;;;;;;;6.97;51.55;100065.20;105278;1248;71606;-64
2023/03/01 06:33:28;;;;;;;11.60;6.90;;;;;;;7.07;51.87;100070.94;105183;1251;60881;-64
2023/03/01 06:35:56;;;;;;;8.90;7.20;;;;;;;7.13;52.26;100072.53;105412;1251;60755;-64
2023/03/01 06:38:25;;;;;;;11.90;7.60;;;;;;;7.16;52.25;100075.95;105513;1250;73130;-65
2023/03/01 06:40:54;;;;;;;9.20;6.60;;;;;;;7.27;51.93;100074.83;105306;1252;68818;-64
2023/03/01 06:43:23;;;;;;;8.90;6.70;;;;;;;7.37;51.94;100072.36;105225;1248;72224;-65
2023/03/01 06:45:51;;;;;;;9.20;7.00;;;;;;;7.30;52.01;100073.91;105146;1249;60847;-63
2023/03/01 06:48:20;;;;;;;9.90;7.60;;;;;;;7.32;52.30;100078.57;105337;1263;60863;-64
2023/03/01 06:50:48;;;;;;;8.60;6.40;;;;;;;7.52;51.91;100078.98;105270;1250;73431;-63
2023/03/01 06:53:17;;;;;;;9.00;7.10;;;;;;;7.36;52.42;100084.93;105286;1252;68408;-61
2023/03/01 06:55:45;;;;;;;10.40;7.20;;;;;;;7.44;52.53;100079.16;105052;1265;72915;-62
2023/03/01 06:58:14;;;;;;;8.40;6.60;;;;;;;7.49;53.32;100075.73;105348;1260;60860;-63
2023/03/01 07:00:44;;;;;;;7.90;6.60;;;;;;;7.53;52.96;100075.29;105304;1252;60885;-63
2023/03/01 07:03:12;;;;;;;9.90;6.60;;;;;;;7.64;52.72;100067.89;105374;1249;73600;-63
2023/03/01 07:05:40;;;;;;;8.00;6.70;;;;;;;7.66;52.63;100072.89;105311;1254;69680;-60
2023/03/01 07:08:09;;;;;;;7.90;6.50;;;;;;;7.69;52.70;100073.00;105128;1257;72223;-61
2023/03/01 07:10:38;;;;;;;7.00;6.30;;;;;;;7.74;53.46;100071.67;105103;1255;60865;-64
2023/03/01 07:13:06;;;;;;;8.20;6.50;;;;;;;7.73;53.09;100071.16;105086;1251;60852;-67
2023/03/01 07:15:35;;;;;;;8.10;6.20;;;;;;;7.83;53.38;100080.86;104966;1251;72610;-67
2023/03/01 07:18:03;;;;;;;12.90;6.80;;;;;;;7.93;52.88;100079.05;105355;1250;70874;-67
2023/03/01 07:20:34;;;;;;;9.90;7.50;;;;;;;7.93;52.68;100078.17;105726;1251;71039;-66
2023/03/01 07:23:02;;;;;;;10.60;7.00;;;;;;;8.12;52.78;100075.43;104761;1257;60834;-66
2023/03/01 07:25:31;;;;;;;7.80;6.50;;;;;;;8.26;53.34;100072.44;105070;1251;60828;-66
2023/03/01 07:28:00;;;;;;;9.80;6.60;;;;;;;8.35;52.65;100074.98;105270;1249;72875;-66
2023/03/01 07:30:28;;;;;;;8.80;7.10;;;;;;;8.31;52.92;100072.84;105136;1251;69222;-67
2023/03/01 07:32:58;;;;;;;9.90;7.70;;;;;;;8.42;52.92;100071.33;105431;1250;71718;-67
2023/03/01 07:35:26;;;;;;;9.90;7.10;;;;;;;8.51;53.23;100067.09;105386;1248;60863;-66
2023/03/01 07:37:55;;;;;;;9.00;7.50;;;;;;;8.46;54.76;100069.83;105175;1250;60841;-66
2023/03/01 07:40:23;;;;;;;9.70;6.70;;;;;;;8.68;56.69;100070.27;104561;1254;72952;-66
2023/03/01 07:42:58;;;;;;;9.20;7.30;;;;;;;8.83;57.66;100062.52;105070;1266;68003;-67
2023/03/01 07:45:43;;;;;;;8.40;6.90;;;;;;;8.99;57.79;100062.24;105199;1254;71299;-68
2023/03/01 07:48:12;;;;;;;10.20;7.80;;;;;;;9.01;56.88;100060.43;105275;1249;60876;-66
2023/03/01 07:50:41;;;;;;;12.10;8.20;;;;;;;8.83;56.82;100059.52;105121;1253;60896;-67
2023/03/01 07:53:10;;;;;;;7.30;6.50;;;;;;;8.91;55.84;100055.98;105262;1250;72457;-71
2023/03/01 07:55:38;;;;;;;9.90;7.50;;;;;;;9.00;55.76;100053.99;105362;1251;69354;-66
2023/03/01 07:58:07;;;;;;;9.60;7.60;;;;;;;9.08;55.01;100058.12;105414;1249;72477;-67
2023/03/01 08:00:36;;;;;;;8.80;7.10;;;;;;;9.20;54.86;100050.92;105240;1253;60809;-66
2023/03/01 08:03:05;;;;;;;10.40;7.20;;;;;;;9.31;54.20;100058.80;105017;1250;60857;-65
2023/03/01 08:05:34;;;;;;;7.80;6.20;;;;;;;9.44;53.53;100053.33;105636;1250;72706;-67
2023/03/01 08:08:04;;;;;;;9.70;7.30;;;;;;;9.46;52.60;100054.85;105562;1249;68192;-66
2023/03/01 08:10:33;;;;;;;8.90;6.50;;;;;;;9.61;52.41;100056.46;105091;1255;73532;-66
2023/03/01 08:13:01;;;;;;;7.80;6.30;;;;;;;9.83;51.93;100054.17;105115;1254;60865;-66
2023/03/01 08:15:30;;;;;;;8.00;6.40;;;;;;;9.83;51.14;100059.95;105065;1264;60968;-66
2023/03/01 08:18:03;;;;;;;8.10;6.50;;;;;;;9.92;50.24;100056.14;104939;1253;71811;-66
2023/03/01 08:20:31;;;;;;;7.80;7.00;;;;;;;9.93;50.25;100059.98;104853;1272;69173;-64
2023/03/01 08:23:00;;;;;;;8.30;6.70;;;;;;;9.90;49.17;100066.19;104911;1266;71178;-64
2023/03/01 08:25:28;;;;;;;8.10;6.70;;;;;;;10.03;49.38;100062.79;104967;1249;60851;-65
2023/03/01 08:27:57;;;;;;;9.00;7.30;;;;;;;10.14;48.99;100068.37;104780;1253;60924;-70
2023/03/01 08:30:25;;;;;;;9.60;7.40;;;;;;;10.10;48.07;100068.32;105071;1253;72603;-69
2023/03/01 08:32:54;;;;;;;8.30;6.70;;;;;;;10.13;48.13;100071.56;105146;1250;69485;-68
2023/03/01 08:35:23;;;;;;;8.20;7.20;;;;;;;10.24;48.10;100072.08;104993;1249;73820;-69
2023/03/01 08:37:52;;;;;;;7.10;6.40;;;;;;;10.23;47.48;100074.89;105055;1256;60962;-67
2023/03/01 08:40:21;;;;;;;10.10;7.60;;;;;;;10.19;47.47;100079.08;105264;1249;60856;-68
2023/03/01 08:42:50;;;;;;;8.80;6.90;;;;;;;10.23;47.34;100075.96;104993;1253;71629;-68
2023/03/01 08:45:18;;;;;;;9.00;7.00;;;;;;;10.30;47.72;100078.35;104964;1250;70370;-67
2023/03/01 08:47:47;;;;;;;9.80;7.00;;;;;;;10.30;47.48;100075.38;105278;1250;72530;-67
2023/03/01 08:50:15;;;;;;;8.90;6.70;;;;;;;10.36;47.42;100067.31;105033;1259;60844;-69
2023/03/01 08:52:44;;;;;;;8.40;7.00;;;;;;;10.39;47.23;100064.91;104957;1250;60902;-66
2023/03/01 08:55:17;;;;;;;9.60;7.60;;;;;;;10.40;47.61;100061.03;104833;1253;72382;-64
2023/03/01 08:57:45;;;;;;;9.90;7.30;;;;;;;10.50;46.99;100053.63;105076;1250;69116;-67
2023/03/01 09:00:14;;;;;;;12.10;6.90;;;;;;;10.38;47.00;100050.20;107612;1249;73223;-68
2023/03/01 09:02:43;;;;;;;9.80;7.30;;;;;;;10.48;46.60;100054.77;108955;1249;59307;-70
2023/03/01 09:05:11;;;;;;;7.90;6.30;;;;;;;10.67;46.52;100050.94;108908;1249;58916;-68
2023/03/01 09:07:42;;;;;;;7.50;6.00;;;;;;;10.86;46.48;100054.96;108951;1250;72506;-68
2023/03/01 09:10:11;;;;;;;7.00;6.00;;;;;;;11.03;46.14;100052.40;107152;1249;69814;-70
2023/03/01 09:12:39;;;;;;;6.90;5.90;;;;;;;11.12;45.34;100052.55;105419;1253;71176;-67
2023/03/01 09:15:09;;;;;;;9.40;6.70;;;;;;;11.09;45.66;100056.23;105583;1250;60791;-67
2023/03/01 09:17:38;;;;;;;8.00;6.20;;;;;;;10.99;44.51;100051.87;105162;1251;60898;-68
2023/03/01 09:20:10;;;;;;;8.50;6.10;;;;;;;11.02;44.92;100055.25;104881;1250;73277;-68
2023/03/01 09:22:40;;;;;;;7.20;6.20;;;;;;;11.11;44.96;100057.38;104781;1259;69035;-68
2023/03/01 09:25:09;;;;;;;8.60;6.60;;;;;;;11.24;45.07;100061.59;105259;1250;72688;-67
2023/03/01 09:27:37;;;;;;;7.70;6.10;;;;;;;11.35;44.47;100058.20;105070;1261;60789;-67
2023/03/01 09:30:07;;;;;;;7.00;5.70;;;;;;;11.33;44.52;100060.56;105319;1251;60779;-67
2023/03/01 09:32:36;;;;;;;7.90;6.10;;;;;;;11.31;44.29;100063.60;105269;1260;72153;-67
2023/03/01 09:35:05;;;;;;;6.90;6.20;;;;;;;11.35;44.37;100062.58;105358;1250;70190;-66
2023/03/01 09:37:34;;;;;;;7.70;5.90;;;;;;;11.20;43.83;100059.83;104911;1253;73095;-64
2023/03/01 09:40:05;;;;;;;7.30;6.10;;;;;;;11.39;44.78;100066.44;105052;1250;61169;-64
2023/03/01 09:42:34;;;;;;;8.20;6.40;;;;;;;11.51;43.95;100062.82;105069;1254;60793;-65
2023/03/01 09:45:23;;;;;;;6.90;5.70;;;;;;;11.54;43.84;100053.59;104876;1265;73251;-64
2023/03/01 09:47:52;;;;;;;8.10;6.50;;;;;;;11.65;43.91;100056.11;104633;1250;70154;-66
2023/03/01 09:50:21;;;;;;;6.80;5.80;;;;;;;11.77;43.48;100059.00;104945;1258;73793;-64
2023/03/01 09:53:10;;;;;;;7.50;6.40;;;;;;;11.80;43.18;100062.35;105081;1253;62199;-63
2023/03/01 09:56:05;;;;;;;7.30;6.00;;;;;;;11.60;43.07;100061.60;105187;1250;61660;-65
2023/03/01 09:59:01;;;;;;;9.50;6.10;;;;;;;11.68;43.67;100057.40;105248;1253;73438;-65
2023/03/01 10:01:49;;;;;;;7.20;6.40;;;;;;;11.67;42.97;100060.78;108776;1249;68770;-66
2023/03/01 10:04:35;;;;;;;7.70;5.50;;;;;;;11.73;42.66;100060.17;107574;1250;72197;-65
2023/03/01 10:07:12;;;;;;;8.00;6.30;;;;;;;11.73;42.39;100060.90;104876;1266;61691;-64
2023/03/01 10:09:42;;;;;;;7.80;6.30;;;;;;;11.76;43.40;100063.40;105900;1253;61576;-64
2023/03/01 10:12:19;;;;;;;7.50;6.10;;;;;;;11.63;42.74;100064.12;104972;1253;72793;-63
2023/03/01 10:15:10;;;;;;;7.00;6.30;;;;;;;11.58;43.09;100059.75;104889;1251;69597;-64
2023/03/01 10:17:43;;;;;;;8.80;6.80;;;;;;;11.58;43.23;100059.00;105017;1262;72260;-65
2023/03/01 10:20:23;;;;;;;8.90;6.80;;;;;;;11.59;43.72;100056.17;105424;1249;61695;-64
2023/03/01 10:22:54;;;;;;;10.60;6.60;;;;;;;11.56;43.40;100055.60;105311;1250;61577;-65
2023/03/01 10:25:53;;;;;;;7.40;6.60;;;;;;;11.53;44.13;100051.34;104664;1265;73973;-66
2023/03/01 10:28:24;;;;;;;7.80;6.20;;;;;;;11.56;43.41;100057.87;105028;1250;69035;-63
2023/03/01 10:30:52;;;;;;;7.60;6.30;;;;;;;11.47;43.70;100056.66;104878;1251;71576;-63
2023/03/01 10:33:26;;;;;;;7.10;6.20;;;;;;;11.41;43.65;100061.98;105342;1250;62189;-63
2023/03/01 10:35:55;;;;;;;7.80;6.40;;;;;;;11.33;44.15;100059.33;105074;1250;62018;-63
2023/03/01 10:38:24;;;;;;;7.50;5.90;;;;;;;11.32;44.46;100058.81;104913;1253;71842;-66
2023/03/01 10:40:59;;;;;;;5.90;5.20;;;;;;;11.32;44.42;100054.09;105342;1253;69582;-65
2023/03/01 10:43:43;;;;;;;8.40;6.60;;;;;;;11.30;44.20;100054.52;105361;1257;72280;-66
2023/03/01 10:46:34;;;;;;;7.20;6.10;;;;;;;11.38;44.48;100053.69;105160;1249;61699;-65
2023/03/01 10:49:19;;;;;;;6.80;5.50;;;;;;;11.43;44.38;100049.95;105441;1249;61695;-64
2023/03/01 10:51:50;;;;;;;6.10;5.40;;;;;;;11.49;44.56;100046.40;105038;1250;74284;-67
2023/03/01 10:54:22;;;;;;;7.90;6.40;;;;;;;11.42;44.66;100046.15;105188;1250;68199;-65
2023/03/01 10:57:01;;;;;;;6.70;5.70;;;;;;;11.57;44.77;100046.42;105124;1254;72356;-65
2023/03/01 10:59:33;;;;;;;5.90;5.30;;;;;;;11.58;44.30;100041.45;104850;1250;61770;-67
2023/03/01 11:02:33;;;;;;;7.30;5.40;;;;;;;11.57;44.24;100043.80;105301;1251;61667;-67
2023/03/01 11:05:13;;;;;;;6.60;5.90;;;;;;;11.58;44.24;100043.04;105239;1265;73421;-68
2023/03/01 11:07:52;;;;;;;7.70;5.70;;;;;;;11.60;44.71;100041.58;104673;1262;69350;-67
2023/03/01 11:10:35;;;;;;;7.80;6.10;;;;;;;11.66;44.58;100045.34;105035;1250;72289;-67
2023/03/01 11:13:09;;;;;;;7.20;5.10;;;;;;;11.73;44.26;100047.71;105348;1252;61590;-67
2023/03/01 11:15:39;;;;;;;5.90;5.20;;;;;;;11.79;44.15;100039.71;104829;1251;61704;-68
2023/03/01 11:18:19;;;;;;;6.30;5.30;;;;;;;11.78;44.58;100038.39;104976;1250;74396;-68
2023/03/01 11:20:48;;;;;;;6.70;5.40;;;;;;;11.73;44.29;100039.80;105066;1250;69173;-71
2023/03/01 11:23:18;;;;;;;6.10;4.40;;;;;;;11.73;44.39;100042.10;104818;1252;73684;-70
2023/03/01 11:25:54;;;;;;;6.70;5.60;;;;;;;11.72;44.41;100040.90;105077;1253;61697;-69
2023/03/01 11:28:23;;;;;;;8.20;6.30;;;;;;;11.63;44.19;100044.96;104919;1266;61622;-71
2023/03/01 11:31:05;;;;;;;5.70;4.90;;;;;;;11.75;43.92;100048.14;104707;1256;73382;-71
2023/03/01 11:33:57;;;;;;;6.80;4.60;;;;;;;11.85;43.53;100040.53;105157;1249;69273;-70
2023/03/01 11:36:41;;;;;;;6.00;5.00;;;;;;;11.81;43.51;100045.27;104984;1270;72236;-70
2023/03/01 11:39:21;;;;;;;7.40;5.20;;;;;;;11.91;44.05;100046.10;105186;1265;62253;-70
2023/03/01 11:41:52;;;;;;;6.50;5.20;;;;;;;11.99;43.26;100039.29;105150;1250;61557;-71
2023/03/01 11:44:28;;;;;;;5.20;4.70;;;;;;;12.03;43.31;100041.23;105338;1250;73297;-70
2023/03/01 11:47:19;;;;;;;6.60;4.40;;;;;;;12.10;43.46;100037.24;105121;1260;68932;-71